sensor_id;sensor_type;location;lat;lon;timestamp;temperature;humidity
36850;DHT22;22783;51.034;3.726;2022-07-06T00:01:21;17.30;84.60
36850;DHT22;22783;51.034;3.726;2022-07-06T00:03:47;17.20;85.00
36850;DHT22;22783;51.034;3.726;2022-07-06T00:06:13;17.10;85.40
36850;DHT22;22783;51.034;3.726;2022-07-06T00:08:39;17.10;85.80
36850;DHT22;22783;51.034;3.726;2022-07-06T00:11:05;17.00;86.40
36850;DHT22;22783;51.034;3.726;2022-07-06T00:13:31;17.00;86.70
36850;DHT22;22783;51.034;3.726;2022-07-06T00:15:57;17.00;87.10
36850;DHT22;22783;51.034;3.726;2022-07-06T00:18:23;17.00;87.50
36850;DHT22;22783;51.034;3.726;2022-07-06T00:20:48;16.90;88.20
36850;DHT22;22783;51.034;3.726;2022-07-06T00:23:14;16.80;89.40
36850;DHT22;22783;51.034;3.726;2022-07-06T00:25:40;16.80;90.00
36850;DHT22;22783;51.034;3.726;2022-07-06T00:28:05;16.90;89.90
36850;DHT22;22783;51.034;3.726;2022-07-06T00:30:31;16.90;90.00
36850;DHT22;22783;51.034;3.726;2022-07-06T00:32:57;16.90;90.10
36850;DHT22;22783;51.034;3.726;2022-07-06T00:35:24;16.90;90.10
36850;DHT22;22783;51.034;3.726;2022-07-06T00:37:50;16.90;90.10
36850;DHT22;22783;51.034;3.726;2022-07-06T00:40:17;16.90;90.10
36850;DHT22;22783;51.034;3.726;2022-07-06T00:42:44;16.90;90.20
36850;DHT22;22783;51.034;3.726;2022-07-06T00:45:10;16.80;90.20
36850;DHT22;22783;51.034;3.726;2022-07-06T00:47:37;16.80;90.40
36850;DHT22;22783;51.034;3.726;2022-07-06T00:50:07;16.80;90.50
36850;DHT22;22783;51.034;3.726;2022-07-06T00:52:42;16.90;90.50
36850;DHT22;22783;51.034;3.726;2022-07-06T00:55:10;16.90;90.50
36850;DHT22;22783;51.034;3.726;2022-07-06T00:57:36;16.90;90.50
36850;DHT22;22783;51.034;3.726;2022-07-06T01:00:05;16.80;90.50
36850;DHT22;22783;51.034;3.726;2022-07-06T01:02:31;16.70;90.60
36850;DHT22;22783;51.034;3.726;2022-07-06T01:04:57;16.70;90.70
36850;DHT22;22783;51.034;3.726;2022-07-06T01:07:24;16.70;90.70
36850;DHT22;22783;51.034;3.726;2022-07-06T01:09:49;16.60;90.70
36850;DHT22;22783;51.034;3.726;2022-07-06T01:12:15;16.70;90.60
36850;DHT22;22783;51.034;3.726;2022-07-06T01:14:41;16.70;90.50
36850;DHT22;22783;51.034;3.726;2022-07-06T01:17:07;16.70;90.40
36850;DHT22;22783;51.034;3.726;2022-07-06T01:19:33;16.70;90.50
36850;DHT22;22783;51.034;3.726;2022-07-06T01:21:59;16.70;90.30
36850;DHT22;22783;51.034;3.726;2022-07-06T01:24:25;16.80;90.30
36850;DHT22;22783;51.034;3.726;2022-07-06T01:26:51;16.70;90.10
36850;DHT22;22783;51.034;3.726;2022-07-06T01:29:17;16.70;90.20
36850;DHT22;22783;51.034;3.726;2022-07-06T01:31:47;16.70;90.20
36850;DHT22;22783;51.034;3.726;2022-07-06T01:34:17;16.80;90.10
36850;DHT22;22783;51.034;3.726;2022-07-06T01:36:43;16.70;90.20
36850;DHT22;22783;51.034;3.726;2022-07-06T01:39:10;16.70;90.20
36850;DHT22;22783;51.034;3.726;2022-07-06T01:41:36;16.70;90.30
36850;DHT22;22783;51.034;3.726;2022-07-06T01:44:02;16.70;90.30
36850;DHT22;22783;51.034;3.726;2022-07-06T01:46:29;16.70;90.30
36850;DHT22;22783;51.034;3.726;2022-07-06T01:48:54;16.80;90.20
36850;DHT22;22783;51.034;3.726;2022-07-06T01:51:20;16.80;90.30
36850;DHT22;22783;51.034;3.726;2022-07-06T01:53:46;16.90;90.10
36850;DHT22;22783;51.034;3.726;2022-07-06T01:56:12;16.90;90.10
36850;DHT22;22783;51.034;3.726;2022-07-06T01:58:39;16.90;90.00
36850;DHT22;22783;51.034;3.726;2022-07-06T02:01:18;16.90;90.00
36850;DHT22;22783;51.034;3.726;2022-07-06T02:03:44;16.80;90.20
36850;DHT22;22783;51.034;3.726;2022-07-06T02:06:11;16.80;90.60
36850;DHT22;22783;51.034;3.726;2022-07-06T02:08:38;16.60;90.60
36850;DHT22;22783;51.034;3.726;2022-07-06T02:11:07;16.50;90.80
36850;DHT22;22783;51.034;3.726;2022-07-06T02:13:34;16.60;90.80
36850;DHT22;22783;51.034;3.726;2022-07-06T02:16:00;16.50;91.00
36850;DHT22;22783;51.034;3.726;2022-07-06T02:18:26;16.50;91.20
36850;DHT22;22783;51.034;3.726;2022-07-06T02:20:52;16.50;91.10
36850;DHT22;22783;51.034;3.726;2022-07-06T02:23:17;16.30;91.40
36850;DHT22;22783;51.034;3.726;2022-07-06T02:25:43;16.20;91.60
36850;DHT22;22783;51.034;3.726;2022-07-06T02:28:09;16.10;91.80
36850;DHT22;22783;51.034;3.726;2022-07-06T02:30:35;16.10;91.90
36850;DHT22;22783;51.034;3.726;2022-07-06T02:33:01;16.10;92.00
36850;DHT22;22783;51.034;3.726;2022-07-06T02:35:26;16.00;92.00
36850;DHT22;22783;51.034;3.726;2022-07-06T02:37:52;16.00;92.20
36850;DHT22;22783;51.034;3.726;2022-07-06T02:40:18;16.00;92.20
36850;DHT22;22783;51.034;3.726;2022-07-06T02:42:43;16.00;92.20
36850;DHT22;22783;51.034;3.726;2022-07-06T02:45:09;16.10;92.00
36850;DHT22;22783;51.034;3.726;2022-07-06T02:47:35;16.10;92.00
36850;DHT22;22783;51.034;3.726;2022-07-06T02:50:01;16.00;92.20
36850;DHT22;22783;51.034;3.726;2022-07-06T02:52:27;15.90;92.50
36850;DHT22;22783;51.034;3.726;2022-07-06T02:54:52;15.80;92.90
36850;DHT22;22783;51.034;3.726;2022-07-06T02:57:18;15.70;93.10
36850;DHT22;22783;51.034;3.726;2022-07-06T02:59:44;15.60;93.30
36850;DHT22;22783;51.034;3.726;2022-07-06T03:02:11;15.60;93.50
36850;DHT22;22783;51.034;3.726;2022-07-06T03:04:37;15.60;93.70
36850;DHT22;22783;51.034;3.726;2022-07-06T03:07:03;15.50;93.80
36850;DHT22;22783;51.034;3.726;2022-07-06T03:09:29;15.50;93.90
36850;DHT22;22783;51.034;3.726;2022-07-06T03:11:54;15.50;93.80
36850;DHT22;22783;51.034;3.726;2022-07-06T03:14:20;15.50;93.90
36850;DHT22;22783;51.034;3.726;2022-07-06T03:16:46;15.50;93.90
36850;DHT22;22783;51.034;3.726;2022-07-06T03:19:11;15.50;93.90
36850;DHT22;22783;51.034;3.726;2022-07-06T03:21:37;15.50;93.80
36850;DHT22;22783;51.034;3.726;2022-07-06T03:24:03;15.50;93.60
36850;DHT22;22783;51.034;3.726;2022-07-06T03:26:29;15.50;93.80
36850;DHT22;22783;51.034;3.726;2022-07-06T03:28:55;15.50;93.80
36850;DHT22;22783;51.034;3.726;2022-07-06T03:31:20;15.40;93.90
36850;DHT22;22783;51.034;3.726;2022-07-06T03:33:46;15.40;93.90
36850;DHT22;22783;51.034;3.726;2022-07-06T03:36:12;15.30;94.10
36850;DHT22;22783;51.034;3.726;2022-07-06T03:38:37;15.30;94.20
36850;DHT22;22783;51.034;3.726;2022-07-06T03:41:03;15.30;94.20
36850;DHT22;22783;51.034;3.726;2022-07-06T03:43:29;15.20;94.30
36850;DHT22;22783;51.034;3.726;2022-07-06T03:45:55;15.20;94.20
36850;DHT22;22783;51.034;3.726;2022-07-06T03:48:21;15.20;94.10
36850;DHT22;22783;51.034;3.726;2022-07-06T03:50:47;15.20;94.10
36850;DHT22;22783;51.034;3.726;2022-07-06T03:53:12;15.20;94.30
36850;DHT22;22783;51.034;3.726;2022-07-06T03:55:38;15.10;94.50
36850;DHT22;22783;51.034;3.726;2022-07-06T03:58:04;15.10;94.50
36850;DHT22;22783;51.034;3.726;2022-07-06T04:00:29;15.20;94.40
36850;DHT22;22783;51.034;3.726;2022-07-06T04:02:55;15.10;94.50
36850;DHT22;22783;51.034;3.726;2022-07-06T04:05:21;15.10;94.60
36850;DHT22;22783;51.034;3.726;2022-07-06T04:07:48;15.10;94.50
36850;DHT22;22783;51.034;3.726;2022-07-06T04:10:14;15.10;94.50
36850;DHT22;22783;51.034;3.726;2022-07-06T04:12:44;15.10;94.50
36850;DHT22;22783;51.034;3.726;2022-07-06T04:15:11;15.00;94.70
36850;DHT22;22783;51.034;3.726;2022-07-06T04:17:37;15.00;94.70
36850;DHT22;22783;51.034;3.726;2022-07-06T04:20:18;15.00;94.80
36850;DHT22;22783;51.034;3.726;2022-07-06T04:22:44;15.10;94.60
36850;DHT22;22783;51.034;3.726;2022-07-06T04:25:10;15.20;94.50
36850;DHT22;22783;51.034;3.726;2022-07-06T04:27:36;15.30;94.30
36850;DHT22;22783;51.034;3.726;2022-07-06T04:30:03;15.40;94.00
36850;DHT22;22783;51.034;3.726;2022-07-06T04:32:29;15.40;93.80
36850;DHT22;22783;51.034;3.726;2022-07-06T04:34:55;15.50;93.90
36850;DHT22;22783;51.034;3.726;2022-07-06T04:37:20;15.50;93.80
36850;DHT22;22783;51.034;3.726;2022-07-06T04:39:46;15.40;93.80
36850;DHT22;22783;51.034;3.726;2022-07-06T04:42:11;15.50;93.70
36850;DHT22;22783;51.034;3.726;2022-07-06T04:44:37;15.60;93.60
36850;DHT22;22783;51.034;3.726;2022-07-06T04:47:03;15.60;93.50
36850;DHT22;22783;51.034;3.726;2022-07-06T04:49:28;15.60;93.30
36850;DHT22;22783;51.034;3.726;2022-07-06T04:51:54;15.70;93.10
36850;DHT22;22783;51.034;3.726;2022-07-06T04:54:20;15.70;93.10
36850;DHT22;22783;51.034;3.726;2022-07-06T04:56:45;15.60;93.10
36850;DHT22;22783;51.034;3.726;2022-07-06T04:59:12;15.70;93.10
36850;DHT22;22783;51.034;3.726;2022-07-06T05:01:38;15.80;93.00
36850;DHT22;22783;51.034;3.726;2022-07-06T05:04:04;15.80;93.00
36850;DHT22;22783;51.034;3.726;2022-07-06T05:06:29;15.90;92.80
36850;DHT22;22783;51.034;3.726;2022-07-06T05:08:55;15.90;92.90
36850;DHT22;22783;51.034;3.726;2022-07-06T05:11:21;15.90;92.80
36850;DHT22;22783;51.034;3.726;2022-07-06T05:13:46;16.00;92.80
36850;DHT22;22783;51.034;3.726;2022-07-06T05:16:12;16.00;92.80
36850;DHT22;22783;51.034;3.726;2022-07-06T05:18:38;16.00;92.80
36850;DHT22;22783;51.034;3.726;2022-07-06T05:21:03;16.10;92.70
36850;DHT22;22783;51.034;3.726;2022-07-06T05:23:29;16.20;92.60
36850;DHT22;22783;51.034;3.726;2022-07-06T05:25:55;16.30;92.30
36850;DHT22;22783;51.034;3.726;2022-07-06T05:28:20;16.40;92.10
36850;DHT22;22783;51.034;3.726;2022-07-06T05:30:46;16.50;91.90
36850;DHT22;22783;51.034;3.726;2022-07-06T05:33:12;16.70;91.80
36850;DHT22;22783;51.034;3.726;2022-07-06T05:35:37;16.80;91.40
36850;DHT22;22783;51.034;3.726;2022-07-06T05:38:03;16.90;91.40
36850;DHT22;22783;51.034;3.726;2022-07-06T05:40:29;17.00;91.10
36850;DHT22;22783;51.034;3.726;2022-07-06T05:42:55;17.20;90.90
36850;DHT22;22783;51.034;3.726;2022-07-06T05:45:20;17.40;90.60
36850;DHT22;22783;51.034;3.726;2022-07-06T05:47:48;17.60;90.00
36850;DHT22;22783;51.034;3.726;2022-07-06T05:50:32;17.70;89.70
36850;DHT22;22783;51.034;3.726;2022-07-06T05:52:59;17.80;89.10
36850;DHT22;22783;51.034;3.726;2022-07-06T05:55:25;17.90;88.80
36850;DHT22;22783;51.034;3.726;2022-07-06T05:57:51;18.10;88.50
36850;DHT22;22783;51.034;3.726;2022-07-06T06:00:19;18.10;88.20
36850;DHT22;22783;51.034;3.726;2022-07-06T06:02:45;18.10;88.00
36850;DHT22;22783;51.034;3.726;2022-07-06T06:05:12;18.20;87.80
36850;DHT22;22783;51.034;3.726;2022-07-06T06:07:40;18.30;87.30
36850;DHT22;22783;51.034;3.726;2022-07-06T06:10:11;18.50;86.90
36850;DHT22;22783;51.034;3.726;2022-07-06T06:12:37;18.80;86.30
36850;DHT22;22783;51.034;3.726;2022-07-06T06:15:04;18.90;85.50
36850;DHT22;22783;51.034;3.726;2022-07-06T06:17:30;19.00;85.20
36850;DHT22;22783;51.034;3.726;2022-07-06T06:19:57;19.20;84.90
36850;DHT22;22783;51.034;3.726;2022-07-06T06:22:23;19.50;83.80
36850;DHT22;22783;51.034;3.726;2022-07-06T06:24:49;19.70;83.00
36850;DHT22;22783;51.034;3.726;2022-07-06T06:27:14;19.80;82.00
36850;DHT22;22783;51.034;3.726;2022-07-06T06:29:40;19.70;82.10
36850;DHT22;22783;51.034;3.726;2022-07-06T06:32:13;19.80;82.10
36850;DHT22;22783;51.034;3.726;2022-07-06T06:34:39;20.00;81.40
36850;DHT22;22783;51.034;3.726;2022-07-06T06:37:05;19.90;80.70
36850;DHT22;22783;51.034;3.726;2022-07-06T06:39:31;19.90;80.60
36850;DHT22;22783;51.034;3.726;2022-07-06T06:41:57;19.90;80.90
36850;DHT22;22783;51.034;3.726;2022-07-06T06:44:23;20.40;79.40
36850;DHT22;22783;51.034;3.726;2022-07-06T06:46:52;20.90;78.70
36850;DHT22;22783;51.034;3.726;2022-07-06T06:49:18;22.00;74.90
36850;DHT22;22783;51.034;3.726;2022-07-06T06:51:44;22.70;72.00
36850;DHT22;22783;51.034;3.726;2022-07-06T06:54:10;23.60;69.30
36850;DHT22;22783;51.034;3.726;2022-07-06T06:56:36;24.50;66.30
36850;DHT22;22783;51.034;3.726;2022-07-06T06:59:02;25.20;62.90
36850;DHT22;22783;51.034;3.726;2022-07-06T07:01:28;26.00;60.50
36850;DHT22;22783;51.034;3.726;2022-07-06T08:26:42;34.40;39.30
36850;DHT22;22783;51.034;3.726;2022-07-06T08:29:08;34.90;38.60
36850;DHT22;22783;51.034;3.726;2022-07-06T08:31:34;36.10;37.40
36850;DHT22;22783;51.034;3.726;2022-07-06T08:34:00;36.40;36.30
36850;DHT22;22783;51.034;3.726;2022-07-06T08:36:26;36.40;36.10
36850;DHT22;22783;51.034;3.726;2022-07-06T08:38:52;35.20;36.80
36850;DHT22;22783;51.034;3.726;2022-07-06T08:41:22;33.50;38.70
36850;DHT22;22783;51.034;3.726;2022-07-06T08:43:50;32.00;40.80
36850;DHT22;22783;51.034;3.726;2022-07-06T08:46:16;31.60;41.70
36850;DHT22;22783;51.034;3.726;2022-07-06T08:48:42;31.60;41.30
36850;DHT22;22783;51.034;3.726;2022-07-06T08:51:08;30.60;42.20
36850;DHT22;22783;51.034;3.726;2022-07-06T08:53:33;29.20;44.50
36850;DHT22;22783;51.034;3.726;2022-07-06T08:56:01;28.60;46.10
36850;DHT22;22783;51.034;3.726;2022-07-06T08:58:27;27.90;47.50
36850;DHT22;22783;51.034;3.726;2022-07-06T09:00:55;27.40;48.30
36850;DHT22;22783;51.034;3.726;2022-07-06T09:03:21;26.60;49.80
36850;DHT22;22783;51.034;3.726;2022-07-06T09:05:47;26.30;50.30
36850;DHT22;22783;51.034;3.726;2022-07-06T09:08:13;26.40;50.30
36850;DHT22;22783;51.034;3.726;2022-07-06T09:10:39;26.60;49.60
36850;DHT22;22783;51.034;3.726;2022-07-06T09:13:08;26.60;49.60
36850;DHT22;22783;51.034;3.726;2022-07-06T09:15:35;26.30;49.90
36850;DHT22;22783;51.034;3.726;2022-07-06T09:18:02;26.40;49.80
36850;DHT22;22783;51.034;3.726;2022-07-06T09:20:29;26.60;49.80
36850;DHT22;22783;51.034;3.726;2022-07-06T09:23:04;27.30;48.90
36850;DHT22;22783;51.034;3.726;2022-07-06T09:25:30;27.60;48.20
36850;DHT22;22783;51.034;3.726;2022-07-06T09:27:57;28.00;47.60
36850;DHT22;22783;51.034;3.726;2022-07-06T09:30:25;28.80;46.50
36850;DHT22;22783;51.034;3.726;2022-07-06T09:32:54;28.50;46.40
36850;DHT22;22783;51.034;3.726;2022-07-06T09:38:05;27.50;48.10
36850;DHT22;22783;51.034;3.726;2022-07-06T09:40:34;26.90;49.20
36850;DHT22;22783;51.034;3.726;2022-07-06T09:43:11;26.80;49.60
36850;DHT22;22783;51.034;3.726;2022-07-06T09:45:38;26.70;49.50
36850;DHT22;22783;51.034;3.726;2022-07-06T09:48:15;26.40;50.10
36850;DHT22;22783;51.034;3.726;2022-07-06T09:51:02;26.50;50.00
36850;DHT22;22783;51.034;3.726;2022-07-06T09:53:29;26.70;49.50
36850;DHT22;22783;51.034;3.726;2022-07-06T09:55:56;27.30;48.70
36850;DHT22;22783;51.034;3.726;2022-07-06T09:58:24;27.30;48.60
36850;DHT22;22783;51.034;3.726;2022-07-06T10:00:50;27.40;48.50
36850;DHT22;22783;51.034;3.726;2022-07-06T10:03:17;27.90;47.90
36850;DHT22;22783;51.034;3.726;2022-07-06T10:05:46;28.40;46.60
36850;DHT22;22783;51.034;3.726;2022-07-06T10:08:13;29.10;45.80
36850;DHT22;22783;51.034;3.726;2022-07-06T10:10:40;29.80;44.60
36850;DHT22;22783;51.034;3.726;2022-07-06T10:13:07;30.00;44.60
36850;DHT22;22783;51.034;3.726;2022-07-06T10:15:38;29.80;44.70
36850;DHT22;22783;51.034;3.726;2022-07-06T10:18:08;29.80;44.70
36850;DHT22;22783;51.034;3.726;2022-07-06T10:20:36;29.40;44.70
36850;DHT22;22783;51.034;3.726;2022-07-06T10:23:04;28.70;45.90
36850;DHT22;22783;51.034;3.726;2022-07-06T10:25:32;28.30;46.50
36850;DHT22;22783;51.034;3.726;2022-07-06T10:28:00;28.40;46.10
36850;DHT22;22783;51.034;3.726;2022-07-06T10:30:27;28.20;46.60
36850;DHT22;22783;51.034;3.726;2022-07-06T10:32:55;28.20;46.40
36850;DHT22;22783;51.034;3.726;2022-07-06T10:35:21;28.30;46.30
36850;DHT22;22783;51.034;3.726;2022-07-06T10:38:09;28.80;45.60
36850;DHT22;22783;51.034;3.726;2022-07-06T10:40:39;29.20;44.90
36850;DHT22;22783;51.034;3.726;2022-07-06T10:43:52;29.40;45.70
36850;DHT22;22783;51.034;3.726;2022-07-06T10:46:17;29.50;44.90
36850;DHT22;22783;51.034;3.726;2022-07-06T10:48:48;29.90;44.40
36850;DHT22;22783;51.034;3.726;2022-07-06T10:51:25;30.80;42.90
36850;DHT22;22783;51.034;3.726;2022-07-06T10:54:04;31.60;42.40
36850;DHT22;22783;51.034;3.726;2022-07-06T10:56:39;33.40;40.30
36850;DHT22;22783;51.034;3.726;2022-07-06T11:01:38;32.70;40.20
36850;DHT22;22783;51.034;3.726;2022-07-06T11:04:08;32.50;40.30
36850;DHT22;22783;51.034;3.726;2022-07-06T11:06:37;31.50;41.90
36850;DHT22;22783;51.034;3.726;2022-07-06T11:09:12;30.60;43.10
36850;DHT22;22783;51.034;3.726;2022-07-06T11:11:41;30.00;43.70
36850;DHT22;22783;51.034;3.726;2022-07-06T11:14:11;30.40;43.40
36850;DHT22;22783;51.034;3.726;2022-07-06T11:17:00;30.80;42.70
36850;DHT22;22783;51.034;3.726;2022-07-06T11:19:27;30.90;42.60
36850;DHT22;22783;51.034;3.726;2022-07-06T11:22:05;30.70;42.80
36850;DHT22;22783;51.034;3.726;2022-07-06T11:24:33;30.50;42.90
36850;DHT22;22783;51.034;3.726;2022-07-06T11:27:00;30.10;43.40
36850;DHT22;22783;51.034;3.726;2022-07-06T11:29:28;30.40;43.10
36850;DHT22;22783;51.034;3.726;2022-07-06T11:31:56;30.50;42.00
36850;DHT22;22783;51.034;3.726;2022-07-06T11:34:27;30.30;42.00
36850;DHT22;22783;51.034;3.726;2022-07-06T11:36:57;30.40;41.70
36850;DHT22;22783;51.034;3.726;2022-07-06T11:39:34;29.70;42.90
36850;DHT22;22783;51.034;3.726;2022-07-06T11:42:01;29.20;43.70
36850;DHT22;22783;51.034;3.726;2022-07-06T11:44:29;28.30;44.20
36850;DHT22;22783;51.034;3.726;2022-07-06T11:46:56;28.50;45.10
36850;DHT22;22783;51.034;3.726;2022-07-06T11:49:28;29.00;44.70
36850;DHT22;22783;51.034;3.726;2022-07-06T11:51:54;29.00;44.80
36850;DHT22;22783;51.034;3.726;2022-07-06T11:54:21;28.70;45.30
36850;DHT22;22783;51.034;3.726;2022-07-06T11:56:48;28.30;46.00
36850;DHT22;22783;51.034;3.726;2022-07-06T11:59:15;28.30;45.00
36850;DHT22;22783;51.034;3.726;2022-07-06T12:01:41;27.60;46.20
36850;DHT22;22783;51.034;3.726;2022-07-06T12:04:10;27.20;47.20
36850;DHT22;22783;51.034;3.726;2022-07-06T12:06:36;27.10;47.60
36850;DHT22;22783;51.034;3.726;2022-07-06T12:09:02;27.00;48.70
36850;DHT22;22783;51.034;3.726;2022-07-06T12:11:31;26.70;48.50
36850;DHT22;22783;51.034;3.726;2022-07-06T12:14:00;26.50;49.30
36850;DHT22;22783;51.034;3.726;2022-07-06T12:16:32;26.30;49.00
36850;DHT22;22783;51.034;3.726;2022-07-06T12:19:00;26.30;49.00
36850;DHT22;22783;51.034;3.726;2022-07-06T12:21:27;26.60;48.90
36850;DHT22;22783;51.034;3.726;2022-07-06T12:23:53;26.50;48.30
36850;DHT22;22783;51.034;3.726;2022-07-06T12:26:21;26.50;48.60
36850;DHT22;22783;51.034;3.726;2022-07-06T12:29:07;26.40;48.30
36850;DHT22;22783;51.034;3.726;2022-07-06T12:31:52;26.10;47.40
36850;DHT22;22783;51.034;3.726;2022-07-06T12:34:26;25.50;49.80
36850;DHT22;22783;51.034;3.726;2022-07-06T12:36:54;25.50;49.90
36850;DHT22;22783;51.034;3.726;2022-07-06T12:39:22;25.60;50.50
36850;DHT22;22783;51.034;3.726;2022-07-06T12:41:55;25.50;50.60
36850;DHT22;22783;51.034;3.726;2022-07-06T12:44:25;25.40;51.70
36850;DHT22;22783;51.034;3.726;2022-07-06T12:47:02;25.10;52.50
36850;DHT22;22783;51.034;3.726;2022-07-06T12:49:29;25.40;52.10
36850;DHT22;22783;51.034;3.726;2022-07-06T12:52:00;25.60;51.60
36850;DHT22;22783;51.034;3.726;2022-07-06T12:55:01;25.40;50.70
36850;DHT22;22783;51.034;3.726;2022-07-06T12:57:21;25.30;50.30
36850;DHT22;22783;51.034;3.726;2022-07-06T12:59:55;25.60;50.80
36850;DHT22;22783;51.034;3.726;2022-07-06T13:02:30;25.60;51.50
36850;DHT22;22783;51.034;3.726;2022-07-06T13:04:59;25.70;51.30
36850;DHT22;22783;51.034;3.726;2022-07-06T13:07:26;25.50;51.80
36850;DHT22;22783;51.034;3.726;2022-07-06T13:09:53;25.50;51.20
36850;DHT22;22783;51.034;3.726;2022-07-06T13:12:20;25.60;51.10
36850;DHT22;22783;51.034;3.726;2022-07-06T13:14:47;25.60;51.50
36850;DHT22;22783;51.034;3.726;2022-07-06T13:17:13;25.90;51.40
36850;DHT22;22783;51.034;3.726;2022-07-06T13:19:39;26.00;50.60
36850;DHT22;22783;51.034;3.726;2022-07-06T13:22:05;26.30;50.50
36850;DHT22;22783;51.034;3.726;2022-07-06T13:24:31;26.50;50.10
36850;DHT22;22783;51.034;3.726;2022-07-06T13:26:56;26.50;50.30
36850;DHT22;22783;51.034;3.726;2022-07-06T13:29:23;26.70;50.30
36850;DHT22;22783;51.034;3.726;2022-07-06T13:31:49;26.80;49.80
36850;DHT22;22783;51.034;3.726;2022-07-06T13:34:15;26.90;50.20
36850;DHT22;22783;51.034;3.726;2022-07-06T13:36:41;27.30;49.40
36850;DHT22;22783;51.034;3.726;2022-07-06T13:39:07;27.60;49.00
36850;DHT22;22783;51.034;3.726;2022-07-06T13:41:33;27.60;48.80
36850;DHT22;22783;51.034;3.726;2022-07-06T13:43:58;26.50;50.50
36850;DHT22;22783;51.034;3.726;2022-07-06T13:46:27;26.80;50.40
36850;DHT22;22783;51.034;3.726;2022-07-06T13:48:53;26.80;50.20
36850;DHT22;22783;51.034;3.726;2022-07-06T13:51:19;26.60;50.50
36850;DHT22;22783;51.034;3.726;2022-07-06T13:53:45;26.60;50.70
36850;DHT22;22783;51.034;3.726;2022-07-06T13:56:11;26.60;50.70
36850;DHT22;22783;51.034;3.726;2022-07-06T13:58:37;26.50;50.70
36850;DHT22;22783;51.034;3.726;2022-07-06T14:01:03;26.80;50.10
36850;DHT22;22783;51.034;3.726;2022-07-06T14:03:30;27.10;50.00
36850;DHT22;22783;51.034;3.726;2022-07-06T14:06:00;27.20;49.80
36850;DHT22;22783;51.034;3.726;2022-07-06T14:08:26;27.30;50.30
36850;DHT22;22783;51.034;3.726;2022-07-06T14:10:52;27.10;49.90
36850;DHT22;22783;51.034;3.726;2022-07-06T14:13:18;26.50;50.60
36850;DHT22;22783;51.034;3.726;2022-07-06T14:15:44;26.10;52.00
36850;DHT22;22783;51.034;3.726;2022-07-06T14:18:10;26.40;51.40
36850;DHT22;22783;51.034;3.726;2022-07-06T14:20:37;26.60;50.80
36850;DHT22;22783;51.034;3.726;2022-07-06T14:23:02;26.90;50.50
36850;DHT22;22783;51.034;3.726;2022-07-06T14:25:28;27.20;50.10
36850;DHT22;22783;51.034;3.726;2022-07-06T14:27:54;27.20;50.30
36850;DHT22;22783;51.034;3.726;2022-07-06T14:30:20;26.90;50.50
36850;DHT22;22783;51.034;3.726;2022-07-06T14:32:46;26.80;51.30
36850;DHT22;22783;51.034;3.726;2022-07-06T14:35:12;26.70;51.40
36850;DHT22;22783;51.034;3.726;2022-07-06T14:37:37;26.60;51.90
36850;DHT22;22783;51.034;3.726;2022-07-06T14:40:04;26.80;52.10
36850;DHT22;22783;51.034;3.726;2022-07-06T14:42:30;26.90;52.00
36850;DHT22;22783;51.034;3.726;2022-07-06T14:44:55;26.90;52.20
36850;DHT22;22783;51.034;3.726;2022-07-06T14:47:21;26.60;53.00
36850;DHT22;22783;51.034;3.726;2022-07-06T14:49:47;26.00;54.10
36850;DHT22;22783;51.034;3.726;2022-07-06T14:52:13;25.50;55.70
36850;DHT22;22783;51.034;3.726;2022-07-06T14:54:38;25.10;56.60
36850;DHT22;22783;51.034;3.726;2022-07-06T14:57:04;24.90;57.60
36850;DHT22;22783;51.034;3.726;2022-07-06T14:59:33;25.10;57.40
36850;DHT22;22783;51.034;3.726;2022-07-06T15:01:59;25.40;56.80
36850;DHT22;22783;51.034;3.726;2022-07-06T15:04:25;25.90;56.00
36850;DHT22;22783;51.034;3.726;2022-07-06T15:06:50;25.80;56.00
36850;DHT22;22783;51.034;3.726;2022-07-06T15:09:16;25.90;55.40
36850;DHT22;22783;51.034;3.726;2022-07-06T15:11:42;25.90;55.60
36850;DHT22;22783;51.034;3.726;2022-07-06T15:14:11;26.30;55.10
36850;DHT22;22783;51.034;3.726;2022-07-06T15:16:37;26.50;54.60
36850;DHT22;22783;51.034;3.726;2022-07-06T15:19:03;26.90;53.10
36850;DHT22;22783;51.034;3.726;2022-07-06T15:21:29;26.80;53.10
36850;DHT22;22783;51.034;3.726;2022-07-06T15:23:55;26.30;53.40
36850;DHT22;22783;51.034;3.726;2022-07-06T15:26:21;26.20;53.00
36850;DHT22;22783;51.034;3.726;2022-07-06T15:28:47;25.60;52.10
36850;DHT22;22783;51.034;3.726;2022-07-06T15:31:14;25.70;51.60
36850;DHT22;22783;51.034;3.726;2022-07-06T15:33:42;25.50;52.00
36850;DHT22;22783;51.034;3.726;2022-07-06T15:36:11;25.90;51.70
36850;DHT22;22783;51.034;3.726;2022-07-06T15:38:37;26.20;51.00
36850;DHT22;22783;51.034;3.726;2022-07-06T15:41:03;26.10;51.00
36850;DHT22;22783;51.034;3.726;2022-07-06T15:43:33;25.30;52.00
36850;DHT22;22783;51.034;3.726;2022-07-06T15:46:01;24.80;53.20
36850;DHT22;22783;51.034;3.726;2022-07-06T15:48:28;24.70;53.60
36850;DHT22;22783;51.034;3.726;2022-07-06T15:50:54;24.60;53.30
36850;DHT22;22783;51.034;3.726;2022-07-06T15:53:21;24.20;54.00
36850;DHT22;22783;51.034;3.726;2022-07-06T15:55:47;24.40;54.20
36850;DHT22;22783;51.034;3.726;2022-07-06T15:58:13;24.80;53.40
36850;DHT22;22783;51.034;3.726;2022-07-06T16:00:39;25.00;53.20
36850;DHT22;22783;51.034;3.726;2022-07-06T16:03:04;25.20;52.50
36850;DHT22;22783;51.034;3.726;2022-07-06T16:05:31;25.40;52.10
36850;DHT22;22783;51.034;3.726;2022-07-06T16:07:57;25.40;51.40
36850;DHT22;22783;51.034;3.726;2022-07-06T16:10:23;25.00;52.40
36850;DHT22;22783;51.034;3.726;2022-07-06T16:12:49;25.20;52.20
36850;DHT22;22783;51.034;3.726;2022-07-06T16:15:15;25.40;51.10
36850;DHT22;22783;51.034;3.726;2022-07-06T16:17:41;25.50;50.70
36850;DHT22;22783;51.034;3.726;2022-07-06T16:20:09;25.30;50.40
36850;DHT22;22783;51.034;3.726;2022-07-06T16:22:34;25.10;50.10
36850;DHT22;22783;51.034;3.726;2022-07-06T16:25:00;25.10;50.40
36850;DHT22;22783;51.034;3.726;2022-07-06T16:27:26;25.00;51.00
36850;DHT22;22783;51.034;3.726;2022-07-06T16:29:52;25.10;51.50
36850;DHT22;22783;51.034;3.726;2022-07-06T16:32:18;25.20;52.00
36850;DHT22;22783;51.034;3.726;2022-07-06T16:34:43;25.10;52.60
36850;DHT22;22783;51.034;3.726;2022-07-06T16:37:09;25.10;52.70
36850;DHT22;22783;51.034;3.726;2022-07-06T16:39:35;25.20;53.10
36850;DHT22;22783;51.034;3.726;2022-07-06T16:42:02;24.80;54.50
36850;DHT22;22783;51.034;3.726;2022-07-06T16:44:27;24.60;55.40
36850;DHT22;22783;51.034;3.726;2022-07-06T16:46:53;24.60;56.40
36850;DHT22;22783;51.034;3.726;2022-07-06T16:49:19;24.90;56.50
36850;DHT22;22783;51.034;3.726;2022-07-06T16:51:44;24.80;56.80
36850;DHT22;22783;51.034;3.726;2022-07-06T16:54:10;24.90;57.30
36850;DHT22;22783;51.034;3.726;2022-07-06T16:56:36;25.10;57.30
36850;DHT22;22783;51.034;3.726;2022-07-06T16:59:03;24.90;58.10